sensor_id;sensor_type;location;lat;lon;timestamp;temperature;humidity
47540;DHT22;33280;52.152;21.052;2023-10-31T00:02:11;11.60;99.90
47540;DHT22;33280;52.152;21.052;2023-10-31T00:04:48;11.50;99.90
47540;DHT22;33280;52.152;21.052;2023-10-31T00:07:17;11.60;99.90
47540;DHT22;33280;52.152;21.052;2023-10-31T00:09:45;11.50;99.90
47540;DHT22;33280;52.152;21.052;2023-10-31T00:12:16;11.50;99.90
47540;DHT22;33280;52.152;21.052;2023-10-31T00:14:47;11.50;99.90
47540;DHT22;33280;52.152;21.052;2023-10-31T00:17:24;11.50;99.90
47540;DHT22;33280;52.152;21.052;2023-10-31T00:19:53;11.50;99.90
47540;DHT22;33280;52.152;21.052;2023-10-31T00:22:21;11.40;99.90
47540;DHT22;33280;52.152;21.052;2023-10-31T00:24:53;11.40;99.90
47540;DHT22;33280;52.152;21.052;2023-10-31T00:27:23;11.40;99.90
47540;DHT22;33280;52.152;21.052;2023-10-31T00:29:52;11.30;99.90
47540;DHT22;33280;52.152;21.052;2023-10-31T00:32:21;11.30;99.90
47540;DHT22;33280;52.152;21.052;2023-10-31T00:35:08;11.30;99.90
47540;DHT22;33280;52.152;21.052;2023-10-31T00:37:36;11.20;99.90
47540;DHT22;33280;52.152;21.052;2023-10-31T00:40:15;11.10;99.90
47540;DHT22;33280;52.152;21.052;2023-10-31T00:42:50;11.20;99.90
47540;DHT22;33280;52.152;21.052;2023-10-31T00:45:21;11.20;99.90
47540;DHT22;33280;52.152;21.052;2023-10-31T00:47:52;11.20;99.90
47540;DHT22;33280;52.152;21.052;2023-10-31T00:50:21;11.10;99.90
47540;DHT22;33280;52.152;21.052;2023-10-31T00:52:49;11.20;99.90
47540;DHT22;33280;52.152;21.052;2023-10-31T00:55:18;11.20;99.90
47540;DHT22;33280;52.152;21.052;2023-10-31T00:57:48;11.20;99.90
47540;DHT22;33280;52.152;21.052;2023-10-31T01:00:17;11.20;99.90
47540;DHT22;33280;52.152;21.052;2023-10-31T01:02:49;11.20;99.90
47540;DHT22;33280;52.152;21.052;2023-10-31T01:05:20;11.20;99.90
47540;DHT22;33280;52.152;21.052;2023-10-31T01:07:53;11.30;99.90
47540;DHT22;33280;52.152;21.052;2023-10-31T01:10:23;11.20;99.90
47540;DHT22;33280;52.152;21.052;2023-10-31T01:12:56;11.20;99.90
47540;DHT22;33280;52.152;21.052;2023-10-31T01:15:24;11.10;99.90
47540;DHT22;33280;52.152;21.052;2023-10-31T01:17:51;11.20;99.90
47540;DHT22;33280;52.152;21.052;2023-10-31T01:20:27;10.90;99.90
47540;DHT22;33280;52.152;21.052;2023-10-31T01:23:00;11.10;99.90
47540;DHT22;33280;52.152;21.052;2023-10-31T01:25:29;11.10;99.90
47540;DHT22;33280;52.152;21.052;2023-10-31T01:27:57;11.10;99.90
47540;DHT22;33280;52.152;21.052;2023-10-31T01:30:31;11.10;99.90
47540;DHT22;33280;52.152;21.052;2023-10-31T01:33:00;11.00;99.90
47540;DHT22;33280;52.152;21.052;2023-10-31T01:35:31;11.20;99.90
47540;DHT22;33280;52.152;21.052;2023-10-31T01:38:03;11.00;99.90
47540;DHT22;33280;52.152;21.052;2023-10-31T01:40:39;11.00;99.90
47540;DHT22;33280;52.152;21.052;2023-10-31T01:43:09;11.30;99.90
47540;DHT22;33280;52.152;21.052;2023-10-31T01:45:37;11.30;99.90
47540;DHT22;33280;52.152;21.052;2023-10-31T01:48:20;11.20;99.90
47540;DHT22;33280;52.152;21.052;2023-10-31T01:50:54;11.10;99.90
47540;DHT22;33280;52.152;21.052;2023-10-31T01:53:25;11.10;99.90
47540;DHT22;33280;52.152;21.052;2023-10-31T01:56:00;11.20;99.90
47540;DHT22;33280;52.152;21.052;2023-10-31T01:58:43;11.60;99.90
47540;DHT22;33280;52.152;21.052;2023-10-31T02:01:12;11.30;99.90
47540;DHT22;33280;52.152;21.052;2023-10-31T02:03:57;11.30;99.90
47540;DHT22;33280;52.152;21.052;2023-10-31T02:06:41;11.20;99.90
47540;DHT22;33280;52.152;21.052;2023-10-31T02:09:11;11.20;99.90
47540;DHT22;33280;52.152;21.052;2023-10-31T02:11:39;11.20;99.90
47540;DHT22;33280;52.152;21.052;2023-10-31T02:14:08;11.20;99.90
47540;DHT22;33280;52.152;21.052;2023-10-31T02:16:45;11.50;99.90
47540;DHT22;33280;52.152;21.052;2023-10-31T02:19:19;11.20;99.90
47540;DHT22;33280;52.152;21.052;2023-10-31T02:21:48;11.20;99.90
47540;DHT22;33280;52.152;21.052;2023-10-31T02:24:16;11.40;99.90
47540;DHT22;33280;52.152;21.052;2023-10-31T02:26:44;11.20;99.90
47540;DHT22;33280;52.152;21.052;2023-10-31T02:29:12;11.30;99.90
47540;DHT22;33280;52.152;21.052;2023-10-31T02:31:45;10.90;99.90
47540;DHT22;33280;52.152;21.052;2023-10-31T02:34:16;11.00;99.90
47540;DHT22;33280;52.152;21.052;2023-10-31T02:36:47;11.20;99.90
47540;DHT22;33280;52.152;21.052;2023-10-31T02:39:21;11.30;99.90
47540;DHT22;33280;52.152;21.052;2023-10-31T02:41:58;11.30;99.90
47540;DHT22;33280;52.152;21.052;2023-10-31T02:44:30;11.30;99.90
47540;DHT22;33280;52.152;21.052;2023-10-31T02:47:01;11.50;99.90
47540;DHT22;33280;52.152;21.052;2023-10-31T02:49:32;11.50;99.90
47540;DHT22;33280;52.152;21.052;2023-10-31T02:52:00;11.40;99.90
47540;DHT22;33280;52.152;21.052;2023-10-31T02:54:31;11.50;99.90
47540;DHT22;33280;52.152;21.052;2023-10-31T02:57:00;11.50;99.90
47540;DHT22;33280;52.152;21.052;2023-10-31T02:59:35;11.50;99.90
47540;DHT22;33280;52.152;21.052;2023-10-31T03:02:06;11.60;99.90
47540;DHT22;33280;52.152;21.052;2023-10-31T03:04:33;11.60;99.90
47540;DHT22;33280;52.152;21.052;2023-10-31T03:07:01;11.40;99.90
47540;DHT22;33280;52.152;21.052;2023-10-31T03:09:41;11.60;99.90
47540;DHT22;33280;52.152;21.052;2023-10-31T03:12:10;11.50;99.90
47540;DHT22;33280;52.152;21.052;2023-10-31T03:14:43;11.80;99.90
47540;DHT22;33280;52.152;21.052;2023-10-31T03:17:19;11.80;99.90
47540;DHT22;33280;52.152;21.052;2023-10-31T03:19:47;11.80;99.90
47540;DHT22;33280;52.152;21.052;2023-10-31T03:22:25;11.80;99.90
47540;DHT22;33280;52.152;21.052;2023-10-31T03:24:58;11.80;99.90
47540;DHT22;33280;52.152;21.052;2023-10-31T03:27:27;11.90;99.90
47540;DHT22;33280;52.152;21.052;2023-10-31T03:29:56;11.90;99.90
47540;DHT22;33280;52.152;21.052;2023-10-31T03:32:26;11.90;99.90
47540;DHT22;33280;52.152;21.052;2023-10-31T03:34:56;12.00;99.90
47540;DHT22;33280;52.152;21.052;2023-10-31T03:37:39;12.00;99.90
47540;DHT22;33280;52.152;21.052;2023-10-31T03:40:12;12.10;99.90
47540;DHT22;33280;52.152;21.052;2023-10-31T03:42:48;12.10;99.90
47540;DHT22;33280;52.152;21.052;2023-10-31T03:45:18;12.20;99.90
47540;DHT22;33280;52.152;21.052;2023-10-31T03:47:59;12.20;99.90
47540;DHT22;33280;52.152;21.052;2023-10-31T03:50:42;12.20;99.90
47540;DHT22;33280;52.152;21.052;2023-10-31T03:53:11;12.20;99.90
47540;DHT22;33280;52.152;21.052;2023-10-31T03:55:46;12.10;99.90
47540;DHT22;33280;52.152;21.052;2023-10-31T03:58:21;12.40;99.90
47540;DHT22;33280;52.152;21.052;2023-10-31T04:01:01;12.20;99.90
47540;DHT22;33280;52.152;21.052;2023-10-31T04:04:07;12.20;99.90
47540;DHT22;33280;52.152;21.052;2023-10-31T04:06:36;12.30;99.90
47540;DHT22;33280;52.152;21.052;2023-10-31T04:09:14;12.40;99.90
47540;DHT22;33280;52.152;21.052;2023-10-31T04:11:53;12.40;99.90
47540;DHT22;33280;52.152;21.052;2023-10-31T04:14:29;12.40;99.90
47540;DHT22;33280;52.152;21.052;2023-10-31T04:17:14;12.50;99.90
47540;DHT22;33280;52.152;21.052;2023-10-31T04:19:57;12.60;99.90
47540;DHT22;33280;52.152;21.052;2023-10-31T04:22:28;12.70;99.90
47540;DHT22;33280;52.152;21.052;2023-10-31T04:25:24;12.80;99.90
47540;DHT22;33280;52.152;21.052;2023-10-31T04:27:58;12.80;99.90
47540;DHT22;33280;52.152;21.052;2023-10-31T04:30:36;12.80;99.90
47540;DHT22;33280;52.152;21.052;2023-10-31T04:33:09;12.90;99.90
47540;DHT22;33280;52.152;21.052;2023-10-31T04:35:39;13.00;99.90
47540;DHT22;33280;52.152;21.052;2023-10-31T04:38:11;13.00;99.90
47540;DHT22;33280;52.152;21.052;2023-10-31T04:40:43;12.90;99.90
47540;DHT22;33280;52.152;21.052;2023-10-31T04:43:16;13.10;99.90
47540;DHT22;33280;52.152;21.052;2023-10-31T04:45:49;13.20;99.90
47540;DHT22;33280;52.152;21.052;2023-10-31T04:48:23;13.30;99.90
47540;DHT22;33280;52.152;21.052;2023-10-31T04:50:58;13.30;99.90
47540;DHT22;33280;52.152;21.052;2023-10-31T04:53:26;13.30;99.90
47540;DHT22;33280;52.152;21.052;2023-10-31T04:56:03;13.30;99.90
47540;DHT22;33280;52.152;21.052;2023-10-31T04:58:39;13.40;99.90
47540;DHT22;33280;52.152;21.052;2023-10-31T05:01:16;13.50;99.90
47540;DHT22;33280;52.152;21.052;2023-10-31T05:03:45;13.60;99.90
47540;DHT22;33280;52.152;21.052;2023-10-31T05:06:33;13.50;99.90
47540;DHT22;33280;52.152;21.052;2023-10-31T05:09:12;13.60;99.90
47540;DHT22;33280;52.152;21.052;2023-10-31T05:11:44;13.60;99.90
47540;DHT22;33280;52.152;21.052;2023-10-31T05:14:13;13.60;99.90
47540;DHT22;33280;52.152;21.052;2023-10-31T05:16:57;13.60;99.90
47540;DHT22;33280;52.152;21.052;2023-10-31T05:19:31;13.70;99.90
47540;DHT22;33280;52.152;21.052;2023-10-31T05:22:05;13.70;99.90
47540;DHT22;33280;52.152;21.052;2023-10-31T05:24:33;13.80;99.90
47540;DHT22;33280;52.152;21.052;2023-10-31T05:27:11;13.70;99.90
47540;DHT22;33280;52.152;21.052;2023-10-31T05:29:41;13.80;99.90
47540;DHT22;33280;52.152;21.052;2023-10-31T05:32:16;13.70;99.90
47540;DHT22;33280;52.152;21.052;2023-10-31T05:34:44;13.90;99.90
47540;DHT22;33280;52.152;21.052;2023-10-31T05:37:15;13.90;99.90
47540;DHT22;33280;52.152;21.052;2023-10-31T05:39:50;14.00;99.90
47540;DHT22;33280;52.152;21.052;2023-10-31T05:42:20;13.90;99.90
47540;DHT22;33280;52.152;21.052;2023-10-31T05:44:51;14.00;99.90
47540;DHT22;33280;52.152;21.052;2023-10-31T05:47:28;14.00;99.90
47540;DHT22;33280;52.152;21.052;2023-10-31T05:49:56;14.10;99.90
47540;DHT22;33280;52.152;21.052;2023-10-31T05:52:40;14.10;99.90
47540;DHT22;33280;52.152;21.052;2023-10-31T05:55:09;14.10;99.90
47540;DHT22;33280;52.152;21.052;2023-10-31T05:57:39;14.20;99.90
47540;DHT22;33280;52.152;21.052;2023-10-31T06:00:10;14.20;99.90
47540;DHT22;33280;52.152;21.052;2023-10-31T06:02:40;14.10;99.90
47540;DHT22;33280;52.152;21.052;2023-10-31T06:05:08;14.00;99.90
47540;DHT22;33280;52.152;21.052;2023-10-31T06:07:41;13.90;99.90
47540;DHT22;33280;52.152;21.052;2023-10-31T06:10:15;14.00;99.90
47540;DHT22;33280;52.152;21.052;2023-10-31T06:12:52;13.90;99.90
47540;DHT22;33280;52.152;21.052;2023-10-31T06:15:39;13.90;99.90
47540;DHT22;33280;52.152;21.052;2023-10-31T06:18:06;14.10;99.90
47540;DHT22;33280;52.152;21.052;2023-10-31T06:20:49;13.90;99.90
47540;DHT22;33280;52.152;21.052;2023-10-31T06:23:21;14.00;99.90
47540;DHT22;33280;52.152;21.052;2023-10-31T06:25:55;13.80;99.90
47540;DHT22;33280;52.152;21.052;2023-10-31T06:28:25;13.80;99.90
47540;DHT22;33280;52.152;21.052;2023-10-31T06:30:56;13.70;99.90
47540;DHT22;33280;52.152;21.052;2023-10-31T06:33:32;13.70;99.90
47540;DHT22;33280;52.152;21.052;2023-10-31T06:36:04;13.80;99.90
47540;DHT22;33280;52.152;21.052;2023-10-31T06:38:40;13.80;99.90
47540;DHT22;33280;52.152;21.052;2023-10-31T06:41:08;13.80;99.90
47540;DHT22;33280;52.152;21.052;2023-10-31T06:43:38;13.70;99.90
47540;DHT22;33280;52.152;21.052;2023-10-31T06:46:10;13.70;99.90
47540;DHT22;33280;52.152;21.052;2023-10-31T06:48:47;13.80;99.90
47540;DHT22;33280;52.152;21.052;2023-10-31T06:51:18;13.80;99.90
47540;DHT22;33280;52.152;21.052;2023-10-31T06:54:02;13.80;99.90
47540;DHT22;33280;52.152;21.052;2023-10-31T06:56:34;13.80;99.90
47540;DHT22;33280;52.152;21.052;2023-10-31T06:59:07;13.80;99.90
47540;DHT22;33280;52.152;21.052;2023-10-31T07:04:49;13.80;99.90
47540;DHT22;33280;52.152;21.052;2023-10-31T07:08:00;13.80;99.90
47540;DHT22;33280;52.152;21.052;2023-10-31T07:10:42;13.90;99.90
47540;DHT22;33280;52.152;21.052;2023-10-31T07:13:16;13.90;99.90
47540;DHT22;33280;52.152;21.052;2023-10-31T08:31:23;14.60;99.90
47540;DHT22;33280;52.152;21.052;2023-10-31T08:34:57;14.60;99.90
47540;DHT22;33280;52.152;21.052;2023-10-31T08:37:36;14.70;99.90
47540;DHT22;33280;52.152;21.052;2023-10-31T08:41:00;14.90;99.90
47540;DHT22;33280;52.152;21.052;2023-10-31T08:47:50;15.10;99.90
47540;DHT22;33280;52.152;21.052;2023-10-31T08:50:29;15.10;99.90
47540;DHT22;33280;52.152;21.052;2023-10-31T08:53:31;15.10;99.90
47540;DHT22;33280;52.152;21.052;2023-10-31T08:59:47;15.00;99.90
47540;DHT22;33280;52.152;21.052;2023-10-31T09:03:30;15.20;99.90
47540;DHT22;33280;52.152;21.052;2023-10-31T09:10:06;15.20;99.90
47540;DHT22;33280;52.152;21.052;2023-10-31T09:19:10;15.20;99.90
47540;DHT22;33280;52.152;21.052;2023-10-31T09:24:45;15.30;99.90
47540;DHT22;33280;52.152;21.052;2023-10-31T09:27:14;15.30;99.90
47540;DHT22;33280;52.152;21.052;2023-10-31T09:30:21;15.30;99.90
47540;DHT22;33280;52.152;21.052;2023-10-31T09:33:10;15.30;99.90
47540;DHT22;33280;52.152;21.052;2023-10-31T09:40:05;15.40;99.90
47540;DHT22;33280;52.152;21.052;2023-10-31T09:42:35;15.50;99.90
47540;DHT22;33280;52.152;21.052;2023-10-31T09:48:43;15.60;99.90
47540;DHT22;33280;52.152;21.052;2023-10-31T09:51:40;15.70;99.90
47540;DHT22;33280;52.152;21.052;2023-10-31T09:57:54;15.80;99.90
47540;DHT22;33280;52.152;21.052;2023-10-31T10:00:25;16.00;99.90
47540;DHT22;33280;52.152;21.052;2023-10-31T10:03:02;16.10;99.90
47540;DHT22;33280;52.152;21.052;2023-10-31T10:05:40;16.10;99.90
47540;DHT22;33280;52.152;21.052;2023-10-31T10:08:11;16.30;99.90
47540;DHT22;33280;52.152;21.052;2023-10-31T10:11:39;16.30;99.90
47540;DHT22;33280;52.152;21.052;2023-10-31T10:18:55;16.40;99.90
47540;DHT22;33280;52.152;21.052;2023-10-31T10:26:59;16.80;99.90
47540;DHT22;33280;52.152;21.052;2023-10-31T10:33:49;16.90;99.90
47540;DHT22;33280;52.152;21.052;2023-10-31T10:37:34;16.90;99.90
47540;DHT22;33280;52.152;21.052;2023-10-31T10:40:31;16.90;99.90
47540;DHT22;33280;52.152;21.052;2023-10-31T10:43:58;17.00;99.90
47540;DHT22;33280;52.152;21.052;2023-10-31T10:46:52;17.20;99.90
47540;DHT22;33280;52.152;21.052;2023-10-31T10:49:28;17.20;99.90
47540;DHT22;33280;52.152;21.052;2023-10-31T10:52:22;17.30;99.90
47540;DHT22;33280;52.152;21.052;2023-10-31T10:55:04;17.30;99.90
47540;DHT22;33280;52.152;21.052;2023-10-31T10:58:04;17.40;99.90
47540;DHT22;33280;52.152;21.052;2023-10-31T11:01:39;17.40;99.90
47540;DHT22;33280;52.152;21.052;2023-10-31T11:05:23;17.60;99.90
47540;DHT22;33280;52.152;21.052;2023-10-31T11:12:35;17.70;99.90
47540;DHT22;33280;52.152;21.052;2023-10-31T11:26:50;17.50;99.90
47540;DHT22;33280;52.152;21.052;2023-10-31T11:30:34;17.60;99.90
47540;DHT22;33280;52.152;21.052;2023-10-31T11:33:40;17.80;99.90
47540;DHT22;33280;52.152;21.052;2023-10-31T11:36:59;17.60;99.90
47540;DHT22;33280;52.152;21.052;2023-10-31T11:44:57;17.80;99.90
47540;DHT22;33280;52.152;21.052;2023-10-31T11:47:52;17.70;99.90
47540;DHT22;33280;52.152;21.052;2023-10-31T11:50:28;17.70;99.90
47540;DHT22;33280;52.152;21.052;2023-10-31T11:55:43;17.70;99.90
47540;DHT22;33280;52.152;21.052;2023-10-31T11:58:33;17.70;99.90
47540;DHT22;33280;52.152;21.052;2023-10-31T12:01:27;17.60;99.90
47540;DHT22;33280;52.152;21.052;2023-10-31T12:05:12;17.40;99.90
47540;DHT22;33280;52.152;21.052;2023-10-31T12:08:02;17.40;99.90
47540;DHT22;33280;52.152;21.052;2023-10-31T12:10:42;17.40;99.90
47540;DHT22;33280;52.152;21.052;2023-10-31T12:13:15;17.40;99.90
47540;DHT22;33280;52.152;21.052;2023-10-31T12:28:23;17.80;99.90
47540;DHT22;33280;52.152;21.052;2023-10-31T12:48:23;17.90;99.90
47540;DHT22;33280;52.152;21.052;2023-10-31T12:51:48;17.40;99.90
47540;DHT22;33280;52.152;21.052;2023-10-31T12:55:47;17.30;99.90
47540;DHT22;33280;52.152;21.052;2023-10-31T12:59:04;17.30;99.90
47540;DHT22;33280;52.152;21.052;2023-10-31T13:01:44;17.20;99.90
47540;DHT22;33280;52.152;21.052;2023-10-31T13:04:31;17.00;99.90
47540;DHT22;33280;52.152;21.052;2023-10-31T13:07:07;17.00;99.90
47540;DHT22;33280;52.152;21.052;2023-10-31T13:09:36;17.00;99.90
47540;DHT22;33280;52.152;21.052;2023-10-31T13:12:14;16.80;99.90
47540;DHT22;33280;52.152;21.052;2023-10-31T13:14:56;16.70;99.90
47540;DHT22;33280;52.152;21.052;2023-10-31T13:17:28;16.60;99.90
47540;DHT22;33280;52.152;21.052;2023-10-31T13:20:25;16.60;99.90
47540;DHT22;33280;52.152;21.052;2023-10-31T13:23:02;16.70;99.90
47540;DHT22;33280;52.152;21.052;2023-10-31T13:25:35;16.70;99.90
47540;DHT22;33280;52.152;21.052;2023-10-31T13:28:46;16.80;99.90
47540;DHT22;33280;52.152;21.052;2023-10-31T13:31:27;16.70;99.90
47540;DHT22;33280;52.152;21.052;2023-10-31T13:34:05;16.70;99.90
47540;DHT22;33280;52.152;21.052;2023-10-31T13:36:46;16.60;99.90
47540;DHT22;33280;52.152;21.052;2023-10-31T13:45:20;16.50;99.90
47540;DHT22;33280;52.152;21.052;2023-10-31T13:47:50;16.40;99.90
47540;DHT22;33280;52.152;21.052;2023-10-31T13:50:18;16.40;99.90
47540;DHT22;33280;52.152;21.052;2023-10-31T13:53:01;16.30;99.90
47540;DHT22;33280;52.152;21.052;2023-10-31T13:55:39;16.30;99.90
47540;DHT22;33280;52.152;21.052;2023-10-31T13:58:09;16.30;99.90
47540;DHT22;33280;52.152;21.052;2023-10-31T14:01:03;16.30;99.90
47540;DHT22;33280;52.152;21.052;2023-10-31T14:12:22;16.30;99.90
47540;DHT22;33280;52.152;21.052;2023-10-31T14:16:27;16.10;99.90
47540;DHT22;33280;52.152;21.052;2023-10-31T14:32:57;16.30;99.90
47540;DHT22;33280;52.152;21.052;2023-10-31T14:36:07;16.30;99.90
47540;DHT22;33280;52.152;21.052;2023-10-31T14:38:45;16.10;99.90
47540;DHT22;33280;52.152;21.052;2023-10-31T14:44:52;16.00;99.90
47540;DHT22;33280;52.152;21.052;2023-10-31T14:47:22;16.00;99.90
47540;DHT22;33280;52.152;21.052;2023-10-31T14:54:25;15.80;99.90
47540;DHT22;33280;52.152;21.052;2023-10-31T14:56:54;15.70;99.90
47540;DHT22;33280;52.152;21.052;2023-10-31T15:00:01;15.70;99.90
47540;DHT22;33280;52.152;21.052;2023-10-31T15:06:34;15.70;99.90
47540;DHT22;33280;52.152;21.052;2023-10-31T15:09:48;15.60;99.90
47540;DHT22;33280;52.152;21.052;2023-10-31T15:13:11;15.40;99.90
47540;DHT22;33280;52.152;21.052;2023-10-31T15:20:40;15.50;99.90
47540;DHT22;33280;52.152;21.052;2023-10-31T15:23:24;15.30;99.90
47540;DHT22;33280;52.152;21.052;2023-10-31T15:29:41;15.30;99.90
47540;DHT22;33280;52.152;21.052;2023-10-31T15:32:51;15.20;99.90
47540;DHT22;33280;52.152;21.052;2023-10-31T15:35:57;15.00;99.90
47540;DHT22;33280;52.152;21.052;2023-10-31T15:39:08;15.10;99.90
47540;DHT22;33280;52.152;21.052;2023-10-31T15:42:01;14.90;99.90
47540;DHT22;33280;52.152;21.052;2023-10-31T15:45:16;15.10;99.90
47540;DHT22;33280;52.152;21.052;2023-10-31T15:48:24;15.00;99.90
47540;DHT22;33280;52.152;21.052;2023-10-31T15:51:18;15.00;99.90
47540;DHT22;33280;52.152;21.052;2023-10-31T15:54:06;15.00;99.90
47540;DHT22;33280;52.152;21.052;2023-10-31T15:56:48;14.90;99.90
47540;DHT22;33280;52.152;21.052;2023-10-31T15:59:20;15.00;99.90
47540;DHT22;33280;52.152;21.052;2023-10-31T16:02:08;15.00;99.90
47540;DHT22;33280;52.152;21.052;2023-10-31T16:04:44;15.00;99.90
47540;DHT22;33280;52.152;21.052;2023-10-31T16:07:42;14.90;99.90
47540;DHT22;33280;52.152;21.052;2023-10-31T16:14:33;14.90;99.90
47540;DHT22;33280;52.152;21.052;2023-10-31T16:17:13;15.00;99.90
47540;DHT22;33280;52.152;21.052;2023-10-31T16:19:41;14.90;99.90
47540;DHT22;33280;52.152;21.052;2023-10-31T16:22:13;14.90;99.90
47540;DHT22;33280;52.152;21.052;2023-10-31T16:24:44;15.10;99.90
47540;DHT22;33280;52.152;21.052;2023-10-31T16:27:51;15.00;99.90
47540;DHT22;33280;52.152;21.052;2023-10-31T16:42:45;15.00;99.90
47540;DHT22;33280;52.152;21.052;2023-10-31T16:57:48;14.70;99.90
47540;DHT22;33280;52.152;21.052;2023-10-31T17:15:14;13.50;99.90
47540;DHT22;33280;52.152;21.052;2023-10-31T17:18:17;13.50;99.90
47540;DHT22;33280;52.152;21.052;2023-10-31T17:25:32;12.90;99.90
47540;DHT22;33280;52.152;21.052;2023-10-31T17:29:08;13.10;99.90
47540;DHT22;33280;52.152;21.052;2023-10-31T17:31:58;12.80;99.90
47540;DHT22;33280;52.152;21.052;2023-10-31T17:43:37;13.10;99.90
47540;DHT22;33280;52.152;21.052;2023-10-31T17:46:56;12.90;99.90
47540;DHT22;33280;52.152;21.052;2023-10-31T17:50:17;12.90;99.90
47540;DHT22;33280;52.152;21.052;2023-10-31T18:00:56;12.70;99.90
47540;DHT22;33280;52.152;21.052;2023-10-31T18:07:44;12.80;99.90
47540;DHT22;33280;52.152;21.052;2023-10-31T18:10:28;12.90;99.90
47540;DHT22;33280;52.152;21.052;2023-10-31T18:16:44;12.80;99.90
47540;DHT22;33280;52.152;21.052;2023-10-31T18:27:28;12.70;99.90
47540;DHT22;33280;52.152;21.052;2023-10-31T18:29:57;12.70;99.90
47540;DHT22;33280;52.152;21.052;2023-10-31T18:32:43;12.80;99.90
47540;DHT22;33280;52.152;21.052;2023-10-31T18:35:52;12.90;99.90
47540;DHT22;33280;52.152;21.052;2023-10-31T18:39:32;12.80;99.90
47540;DHT22;33280;52.152;21.052;2023-10-31T18:46:40;13.00;99.90
47540;DHT22;33280;52.152;21.052;2023-10-31T18:49:38;12.90;99.90
47540;DHT22;33280;52.152;21.052;2023-10-31T18:52:23;13.10;99.90
47540;DHT22;33280;52.152;21.052;2023-10-31T18:54:51;12.80;99.90
47540;DHT22;33280;52.152;21.052;2023-10-31T18:57:39;12.80;99.90
47540;DHT22;33280;52.152;21.052;2023-10-31T19:00:48;12.80;99.90
47540;DHT22;33280;52.152;21.052;2023-10-31T19:03:42;12.80;99.90
47540;DHT22;33280;52.152;21.052;2023-10-31T19:06:23;12.60;99.90
47540;DHT22;33280;52.152;21.052;2023-10-31T19:09:06;12.50;99.90
47540;DHT22;33280;52.152;21.052;2023-10-31T19:12:17;12.60;99.90
47540;DHT22;33280;52.152;21.052;2023-10-31T19:15:47;12.50;99.90
47540;DHT22;33280;52.152;21.052;2023-10-31T19:18:35;12.30;99.90
47540;DHT22;33280;52.152;21.052;2023-10-31T19:21:23;12.40;99.90
47540;DHT22;33280;52.152;21.052;2023-10-31T19:24:18;12.60;99.90
47540;DHT22;33280;52.152;21.052;2023-10-31T19:27:26;12.40;99.90
47540;DHT22;33280;52.152;21.052;2023-10-31T19:30:11;12.40;99.90
47540;DHT22;33280;52.152;21.052;2023-10-31T19:33:01;12.40;99.90
47540;DHT22;33280;52.152;21.052;2023-10-31T19:35:43;12.30;99.90
47540;DHT22;33280;52.152;21.052;2023-10-31T19:38:20;12.40;99.90
47540;DHT22;33280;52.152;21.052;2023-10-31T19:41:04;12.40;99.90
47540;DHT22;33280;52.152;21.052;2023-10-31T19:44:08;12.40;99.90
47540;DHT22;33280;52.152;21.052;2023-10-31T19:47:02;12.20;99.90
47540;DHT22;33280;52.152;21.052;2023-10-31T19:49:58;12.40;99.90
47540;DHT22;33280;52.152;21.052;2023-10-31T19:52:43;12.20;99.90
47540;DHT22;33280;52.152;21.052;2023-10-31T19:55:30;12.30;99.90
47540;DHT22;33280;52.152;21.052;2023-10-31T19:58:12;12.20;99.90
47540;DHT22;33280;52.152;21.052;2023-10-31T20:01:11;12.10;99.90
47540;DHT22;33280;52.152;21.052;2023-10-31T20:04:18;12.00;99.90
47540;DHT22;33280;52.152;21.052;2023-10-31T20:07:34;12.10;99.90
47540;DHT22;33280;52.152;21.052;2023-10-31T20:14:43;11.90;99.90
47540;DHT22;33280;52.152;21.052;2023-10-31T20:21:19;11.70;99.90
47540;DHT22;33280;52.152;21.052;2023-10-31T20:24:13;11.90;99.90
47540;DHT22;33280;52.152;21.052;2023-10-31T20:27:02;11.90;99.90
47540;DHT22;33280;52.152;21.052;2023-10-31T20:29:59;11.90;99.90
47540;DHT22;33280;52.152;21.052;2023-10-31T20:33:05;11.80;99.90
47540;DHT22;33280;52.152;21.052;2023-10-31T20:36:31;11.90;99.90
47540;DHT22;33280;52.152;21.052;2023-10-31T20:39:20;12.10;99.90
47540;DHT22;33280;52.152;21.052;2023-10-31T20:42:07;11.90;99.90
47540;DHT22;33280;52.152;21.052;2023-10-31T20:45:19;11.90;99.90
47540;DHT22;33280;52.152;21.052;2023-10-31T20:48:13;11.80;99.90
47540;DHT22;33280;52.152;21.052;2023-10-31T20:50:49;11.80;99.90
47540;DHT22;33280;52.152;21.052;2023-10-31T20:53:29;11.90;99.90
47540;DHT22;33280;52.152;21.052;2023-10-31T20:56:13;11.90;99.90
47540;DHT22;33280;52.152;21.052;2023-10-31T20:59:13;11.90;99.90
47540;DHT22;33280;52.152;21.052;2023-10-31T21:01:56;11.90;99.90
47540;DHT22;33280;52.152;21.052;2023-10-31T21:04:27;11.90;99.90
47540;DHT22;33280;52.152;21.052;2023-10-31T21:07:14;12.00;99.90
47540;DHT22;33280;52.152;21.052;2023-10-31T21:09:52;12.20;99.90
47540;DHT22;33280;52.152;21.052;2023-10-31T21:12:28;12.00;99.90
47540;DHT22;33280;52.152;21.052;2023-10-31T21:15:24;12.10;99.90
47540;DHT22;33280;52.152;21.052;2023-10-31T21:18:10;12.30;99.90
47540;DHT22;33280;52.152;21.052;2023-10-31T21:21:41;12.20;99.90
47540;DHT22;33280;52.152;21.052;2023-10-31T21:24:22;12.20;99.90
47540;DHT22;33280;52.152;21.052;2023-10-31T21:26:56;12.20;99.90
47540;DHT22;33280;52.152;21.052;2023-10-31T21:29:48;12.10;99.90
47540;DHT22;33280;52.152;21.052;2023-10-31T21:33:03;12.10;99.90
47540;DHT22;33280;52.152;21.052;2023-10-31T21:36:39;12.10;99.90
47540;DHT22;33280;52.152;21.052;2023-10-31T21:39:33;12.00;99.90
47540;DHT22;33280;52.152;21.052;2023-10-31T21:43:43;12.10;99.90
47540;DHT22;33280;52.152;21.052;2023-10-31T21:46:49;12.10;99.90
47540;DHT22;33280;52.152;21.052;2023-10-31T21:49:51;12.10;99.90
47540;DHT22;33280;52.152;21.052;2023-10-31T21:53:13;12.20;99.90
47540;DHT22;33280;52.152;21.052;2023-10-31T21:56:29;12.30;99.90
47540;DHT22;33280;52.152;21.052;2023-10-31T21:59:40;12.30;99.90
47540;DHT22;33280;52.152;21.052;2023-10-31T22:02:17;12.20;99.90
47540;DHT22;33280;52.152;21.052;2023-10-31T22:04:45;12.20;99.90
47540;DHT22;33280;52.152;21.052;2023-10-31T22:07:17;12.20;99.90
47540;DHT22;33280;52.152;21.052;2023-10-31T22:09:45;12.20;99.90
47540;DHT22;33280;52.152;21.052;2023-10-31T22:12:14;12.30;99.90
47540;DHT22;33280;52.152;21.052;2023-10-31T22:14:43;12.20;99.90
47540;DHT22;33280;52.152;21.052;2023-10-31T22:17:14;12.00;99.90
47540;DHT22;33280;52.152;21.052;2023-10-31T22:19:43;12.20;99.90